createdAt,value
2018-07-01T00:00:02.941Z,21.4
2018-07-01T00:10:02.165Z,21.3
2018-07-01T00:20:01.391Z,21.3
2018-07-01T00:30:00.612Z,21.2
2018-07-01T00:39:59.837Z,21.1
2018-07-01T00:49:59.062Z,21.1
2018-07-01T00:59:58.286Z,21
2018-07-01T01:09:57.513Z,21
2018-07-01T01:19:56.740Z,21.1
2018-07-01T01:29:56.010Z,21.1
2018-07-01T01:39:55.185Z,21.1
2018-07-01T01:49:54.417Z,21.1
2018-07-01T01:59:53.637Z,21.1
2018-07-01T02:09:52.863Z,21.1
2018-07-01T02:19:52.085Z,21.1
2018-07-01T02:29:51.310Z,21
2018-07-01T02:39:50.535Z,20.9
2018-07-01T02:49:49.760Z,20.8
2018-07-01T02:59:48.982Z,20.8
2018-07-01T03:09:48.209Z,20.8
2018-07-01T03:19:47.432Z,20.7
2018-07-01T03:29:46.661Z,20.6
2018-07-01T03:39:45.880Z,20.6
2018-07-01T03:49:45.109Z,20.8
2018-07-01T03:59:44.330Z,20.8
2018-07-01T04:09:43.552Z,20.9
2018-07-01T04:19:42.778Z,21.1
2018-07-01T04:29:42.001Z,21.3
2018-07-01T04:39:41.227Z,21.4
2018-07-01T04:49:40.449Z,21.6
2018-07-01T04:59:39.673Z,21.8
2018-07-01T05:09:38.896Z,22
2018-07-01T05:19:38.120Z,22.2
2018-07-01T05:29:37.343Z,22.3
2018-07-01T05:39:36.570Z,22.4
2018-07-01T05:49:35.789Z,22.4
2018-07-01T05:59:35.018Z,22.6
2018-07-01T06:09:34.238Z,22.7
2018-07-01T06:19:33.462Z,22.9
2018-07-01T06:29:32.685Z,23
2018-07-01T06:39:31.909Z,23.1
2018-07-01T06:49:31.164Z,23.3
2018-07-01T06:59:30.356Z,23.3
2018-07-01T07:09:29.581Z,23.4
2018-07-01T07:19:28.803Z,23.4
2018-07-01T07:29:28.030Z,23.4
2018-07-01T07:39:27.251Z,23.4
2018-07-01T07:49:26.476Z,23.5
2018-07-01T07:59:25.708Z,23.6
2018-07-01T08:09:24.929Z,23.6
2018-07-01T08:19:24.152Z,23.8
2018-07-01T08:29:23.373Z,23.9
2018-07-01T08:39:22.596Z,24
2018-07-01T08:49:21.820Z,24.1
2018-07-01T08:59:21.044Z,24.2
2018-07-01T09:09:20.270Z,24.3
2018-07-01T09:19:19.492Z,24.3
2018-07-01T09:29:18.720Z,24.4
2018-07-01T09:39:17.942Z,24.5
2018-07-01T09:49:17.168Z,24.6
2018-07-01T09:59:16.394Z,24.7
2018-07-01T10:09:15.617Z,24.6
2018-07-01T10:19:14.843Z,24.6
2018-07-01T10:29:14.068Z,24.6
2018-07-01T10:39:13.300Z,24.6
2018-07-01T10:49:12.518Z,24.6
2018-07-01T10:59:11.743Z,24.7
2018-07-01T11:09:10.967Z,24.6
2018-07-01T11:19:10.241Z,24.7
2018-07-01T11:29:09.414Z,24.7
2018-07-01T11:39:08.694Z,24.8
2018-07-01T11:49:07.866Z,24.8
2018-07-01T11:59:07.086Z,24.8
2018-07-01T12:09:06.310Z,24.8
2018-07-01T12:19:05.537Z,24.8
2018-07-01T12:29:04.766Z,24.8
2018-07-01T12:39:03.998Z,24.8
2018-07-01T12:49:03.212Z,24.7
2018-07-01T12:59:02.438Z,24.7
2018-07-01T13:09:01.663Z,24.7
2018-07-01T13:19:00.895Z,24.7
2018-07-01T13:29:00.123Z,24.7
2018-07-01T13:38:59.344Z,24.6
2018-07-01T13:48:58.578Z,24.6
2018-07-01T13:58:57.796Z,24.5
2018-07-01T14:08:57.024Z,24.4
2018-07-01T14:18:56.253Z,24.3
2018-07-01T14:28:55.478Z,24.2
2018-07-01T14:38:54.703Z,24.1
2018-07-01T14:48:53.929Z,24.1
2018-07-01T14:58:53.153Z,24
2018-07-01T15:08:52.382Z,23.9
2018-07-01T15:18:51.605Z,23.9
2018-07-01T15:28:50.868Z,24.1
2018-07-01T15:38:50.059Z,24.1
2018-07-01T15:48:49.373Z,24.1
2018-07-01T15:58:48.512Z,24
2018-07-01T16:08:47.790Z,23.9
2018-07-01T16:18:46.975Z,23.8
2018-07-01T16:28:46.194Z,23.8
2018-07-01T16:38:45.421Z,23.6
2018-07-01T16:48:44.648Z,23.5
2018-07-01T16:58:43.875Z,23.4
2018-07-01T17:08:43.101Z,23.4
2018-07-01T17:18:42.377Z,23.3
2018-07-01T17:28:41.553Z,23.3
2018-07-01T17:38:40.781Z,23.3
2018-07-01T17:48:40.008Z,23.2
2018-07-01T17:58:39.235Z,23.1
2018-07-01T18:08:38.460Z,23.1
2018-07-01T18:18:37.693Z,23.1
2018-07-01T18:28:48.662Z,23.1
2018-07-01T18:38:36.137Z,23
2018-07-01T18:48:35.364Z,22.8
2018-07-01T18:58:34.592Z,22.7
2018-07-01T19:02:05.827Z,22.6
2018-07-01T19:05:50.923Z,22.6
2018-07-01T19:15:50.171Z,22.3
2018-07-01T19:25:49.383Z,22.1
2018-07-01T19:35:48.608Z,21.9
2018-07-01T19:45:47.837Z,21.9
2018-07-01T19:55:47.110Z,21.8
2018-07-01T20:05:46.288Z,21.5
2018-07-01T20:15:45.607Z,21.4
2018-07-01T20:25:44.910Z,21.4
2018-07-01T20:35:44.222Z,21.3
2018-07-01T20:45:43.532Z,21.2
2018-07-01T20:55:42.916Z,21.1
2018-07-01T21:05:42.182Z,20.9
2018-07-01T21:15:41.465Z,20.9
2018-07-01T21:25:40.591Z,20.8
2018-07-01T21:35:39.849Z,20.7
2018-07-01T21:45:39.028Z,20.7
2018-07-01T21:55:38.247Z,20.6
2018-07-01T22:05:37.473Z,20.5
2018-07-01T22:15:36.733Z,20.4
2018-07-01T22:25:35.931Z,20.4
2018-07-01T22:35:35.151Z,20.5
2018-07-01T22:45:34.377Z,20.4
2018-07-01T22:55:33.606Z,20.3
2018-07-01T23:05:32.831Z,20.3
2018-07-01T23:15:32.056Z,20.3
2018-07-01T23:25:31.282Z,20.6
2018-07-01T23:35:30.508Z,20.6
2018-07-01T23:45:29.738Z,20.4
2018-07-01T23:55:28.958Z,20.1
